Latest Weather Observations for Mardie

IDW60801

Issued at 4:35 pm WST Saturday 1 November 2014 (issued every 30 minutes, with the page automatically refreshed every 10 minutes)

About weather observations | Map of weather stations | Latest weather observations for WA | Other Formats
Station Details ID: 005008 Name: MARDIE Lat: -21.19 Lon: 115.98 Height: 11.0 m
Data from the previous 72 hours. | See also: Recent months at Mardie
Date/Time
WST
Temp
°C
App
Temp
°C
Dew
Point
Rel
Hum
%
Delta-T
°C
Wind Press
QNH
hPa
Press
MSL
hPa
Rain
since 9 am
mm
Dir
 
Spd
km/h
Gust
km/h
Spd
kts
Gust
kts
01/04:30pm 32.3 26.5 11.5 28 12.2 W 33 43 18 23 1007.3 1007.3 0.0
01/04:00pm 33.8 27.5 9.8 23 13.8 W 33 43 18 23 1007.2 1007.2 0.0
01/03:30pm 34.2 28.9 11.4 25 13.4 WNW 30 41 16 22 1007.1 1007.1 0.0
01/03:00pm 35.4 28.3 6.6 17 15.9 WNW 33 43 18 23 1007.2 1007.2 0.0
01/02:30pm 35.5 28.5 6.7 17 15.9 W 33 41 18 22 1007.4 1007.4 0.0
01/02:00pm 35.7 28.5 6.0 16 16.2 WNW 33 43 18 23 1007.5 1007.5 0.0
01/01:30pm 36.6 29.0 2.6 12 17.7 WNW 32 39 17 21 1007.7 1007.7 0.0
01/01:00pm 37.1 30.3 3.0 12 17.9 WNW 28 37 15 20 1008.3 1008.3 0.0
01/12:30pm 37.0 30.7 4.0 13 17.6 WNW 26 33 14 18 1008.6 1008.6 0.0
01/12:00pm 36.8 31.5 4.9 14 17.2 WNW 22 33 12 18 1008.9 1008.9 0.0
01/11:30am 36.6 31.3 4.8 14 17.1 WNW 22 30 12 16 1009.1 1009.1 0.0
01/11:00am 37.1 32.1 -4.4 7 19.4 WSW 13 30 7 16 1009.6 1009.6 0.0
01/10:30am 36.6 32.9 -3.0 8 18.8 WSW 7 19 4 10 1009.8 1009.8 0.0
01/10:00am 35.3 31.5 -0.9 10 17.7 SSW 9 15 5 8 1010.1 1010.1 0.0
01/09:30am 34.0 30.8 0.6 12 16.5 SSW 7 15 4 8 1010.4 1010.4 0.0
01/09:00am 32.8 28.8 0.8 13 15.8 S 11 17 6 9 1010.6 1010.6 0.0
01/08:30am 31.0 26.8 1.4 15 14.6 S 13 20 7 11 1010.7 1010.7 0.0
01/08:00am 28.7 24.4 3.5 20 12.7 S 15 19 8 10 1010.6 1010.6 0.0
01/07:30am 26.4 21.9 4.2 24 11.1 S 17 22 9 12 1010.4 1010.4 0.0
01/07:00am 23.9 20.4 5.3 30 9.4 SSW 13 19 7 10 1010.5 1010.5 0.0
01/06:30am 21.1 18.9 6.2 38 7.5 SSW 7 9 4 5 1010.3 1010.3 0.0
01/06:00am 18.8 16.4 6.9 46 6.0 SSW 9 11 5 6 1010.1 1010.1 0.0
01/05:30am 18.5 16.2 7.3 48 5.7 SSW 9 11 5 6 1009.9 1009.9 0.0
01/05:00am 19.3 16.2 7.4 46 6.1 SW 13 15 7 8 1009.6 1009.6 0.0
01/04:30am 19.2 16.9 7.6 47 5.9 SSW 9 13 5 7 1009.4 1009.4 0.0
01/04:00am 19.9 17.4 8.3 47 6.0 SSW 11 15 6 8 1009.3 1009.3 0.0
01/03:30am 20.0 17.5 8.4 47 6.0 SW 11 15 6 8 1009.1 1009.1 0.0
01/03:00am 20.4 17.7 9.0 48 6.0 SW 13 15 7 8 1009.1 1009.1 0.0
01/02:30am 20.5 18.5 10.0 51 5.7 SW 11 13 6 7 1009.1 1009.1 0.0
01/02:00am 20.6 19.4 11.5 56 5.0 SW 9 11 5 6 1009.1 1009.1 0.0
01/01:30am 21.7 21.0 12.0 54 5.4 SW 7 9 4 5 1009.2 1009.2 0.0
01/01:00am 22.4 21.4 12.4 53 5.7 SW 9 11 5 6 1009.4 1009.4 0.0
01/12:30am 23.0 22.0 13.5 55 5.5 SW 11 13 6 7 1009.6 1009.6 0.0
01/12:00am 23.8 23.8 14.2 55 5.7 SW 7 11 4 6 1009.7 1009.7 0.0
 
Date/Time
WST
Temp
°C
App
Temp
°C
Dew
Point
Rel
Hum
%
Delta-T
°C
Wind Press
QNH
hPa
Press
MSL
hPa
Rain
since 9 am
mm
Dir
 
Spd
km/h
Gust
km/h
Spd
kts
Gust
kts
31/11:30pm 24.5 24.3 15.7 58 5.3 WSW 11 15 6 8 1009.9 1009.9 0.0
31/11:00pm 24.9 25.1 17.6 64 4.6 WSW 13 17 7 9 1010.1 1010.1 0.0
31/10:30pm 24.9 25.5 18.6 68 4.0 W 13 19 7 10 1010.4 1010.4 0.0
31/10:00pm 24.8 25.7 18.5 68 4.0 W 11 15 6 8 1010.4 1010.4 0.0
31/09:30pm 25.1 26.0 18.5 67 4.2 W 11 13 6 7 1010.4 1010.4 0.0
31/09:00pm 25.5 26.0 18.4 65 4.5 W 13 17 7 9 1010.2 1010.2 0.0
31/08:30pm 25.8 25.8 18.0 62 4.9 W 15 20 8 11 1010.0 1010.0 0.0
31/08:00pm 26.2 25.7 17.8 60 5.3 W 17 22 9 12 1009.9 1009.9 0.0
31/07:30pm 26.5 26.1 18.1 60 5.3 W 17 22 9 12 1009.6 1009.6 0.0
31/07:00pm 26.8 25.7 17.8 57 5.7 W 20 26 11 14 1009.1 1009.1 0.0
31/06:30pm 27.5 26.4 17.7 55 6.2 W 20 32 11 17 1008.9 1008.9 0.0
31/06:00pm 28.6 27.0 17.5 51 7.0 W 22 30 12 16 1008.6 1008.6 0.0
31/05:30pm 29.1 27.2 17.6 50 7.3 W 24 35 13 19 1008.3 1008.3 0.0
31/05:00pm 29.9 27.6 17.7 48 7.8 W 26 41 14 22 1008.2 1008.2 0.0
31/04:30pm 30.6 27.1 16.6 43 8.8 W 30 37 16 20 1008.0 1008.0 0.0
31/04:00pm 31.1 26.8 15.5 39 9.7 W 32 41 17 22 1007.9 1007.9 0.0
31/03:30pm 32.1 27.5 14.7 35 10.7 W 32 43 17 23 1008.0 1008.0 0.0
31/03:00pm 32.5 27.9 14.6 34 11.0 W 32 43 17 23 1008.0 1008.0 0.0
31/02:30pm 32.9 27.6 13.0 30 11.9 W 33 43 18 23 1008.3 1008.3 0.0
31/02:00pm 33.2 28.5 14.3 32 11.6 W 32 41 17 22 1008.5 1008.5 0.0
31/01:30pm 33.1 28.7 14.2 32 11.6 W 30 39 16 21 1009.0 1009.0 0.0
31/01:00pm 32.6 28.4 14.7 34 11.0 W 30 37 16 20 1009.5 1009.5 0.0
31/12:30pm 32.6 28.6 15.1 34 10.8 W 30 37 16 20 1009.8 1009.8 0.0
31/12:00pm 32.2 28.8 15.7 37 10.3 W 28 39 15 21 1010.2 1010.2 0.0
31/11:30am 32.9 29.4 15.4 35 10.9 W 28 35 15 19 1010.4 1010.4 0.0
31/11:00am 33.0 29.9 14.6 33 11.3 W 24 35 13 19 1010.5 1010.5 0.0
31/10:30am 32.4 27.9 9.9 25 12.8 WSW 24 32 13 17 1010.8 1010.8 0.0
31/10:00am 32.3 29.0 10.9 27 12.4 SW 19 28 10 15 1011.0 1011.0 0.0
31/09:30am 31.1 29.0 12.5 32 11.0 SW 15 24 8 13 1011.1 1011.1 0.0
31/09:00am 29.7 27.8 13.0 35 9.9 SSW 15 24 8 13 1011.3 1011.3 0.0
31/08:30am 27.7 26.0 13.6 42 8.4 SSW 15 24 8 13 1011.5 1011.5 0.0
31/08:00am 25.9 23.7 14.4 49 6.9 SSW 19 26 10 14 1011.6 1011.6 0.0
31/07:30am 24.7 22.3 14.5 53 6.1 SW 20 28 11 15 1011.6 1011.6 0.0
31/07:00am 23.5 21.3 14.5 57 5.3 SW 19 26 10 14 1011.6 1011.6 0.0
31/06:30am 22.3 21.2 14.2 60 4.7 SW 13 19 7 10 1011.7 1011.7 0.0
31/06:00am 21.5 20.6 13.7 61 4.5 SW 11 13 6 7 1011.2 1011.2 0.0
31/05:30am 21.6 20.2 13.5 60 4.7 SW 13 17 7 9 1011.1 1011.1 0.0
31/05:00am 22.0 20.6 13.4 58 5.0 SW 13 20 7 11 1010.8 1010.8 0.0
31/04:30am 22.2 20.3 13.0 56 5.3 SW 15 20 8 11 1010.6 1010.6 0.0
31/04:00am 22.6 20.7 13.1 55 5.5 SW 15 24 8 13 1010.2 1010.2 0.0
31/03:30am 22.6 20.8 13.4 56 5.3 SW 15 19 8 10 1010.1 1010.1 0.0
31/03:00am 22.6 21.7 13.7 57 5.2 SW 11 17 6 9 1009.9 1009.9 0.0
31/02:30am 23.2 22.4 13.9 56 5.4 SW 11 15 6 8 1009.6 1009.6 0.0
31/02:00am 23.5 22.8 14.2 56 5.5 SW 11 17 6 9 1009.8 1009.8 0.0
31/01:30am 23.9 23.2 14.3 55 5.7 SW 11 15 6 8 1010.1 1010.1 0.0
31/01:00am 24.4 23.5 14.8 55 5.7 SW 13 17 7 9 1010.5 1010.5 0.0
31/12:30am 24.6 23.4 14.1 52 6.2 SW 13 17 7 9 1010.6 1010.6 0.0
31/12:00am 25.4 24.5 13.6 48 6.9 WSW 11 17 6 9 1010.8 1010.8 0.0
 
Date/Time
WST
Temp
°C
App
Temp
°C
Dew
Point
Rel
Hum
%
Delta-T
°C
Wind Press
QNH
hPa
Press
MSL
hPa
Rain
since 9 am
mm
Dir
 
Spd
km/h
Gust
km/h
Spd
kts
Gust
kts
30/11:30pm 26.2 24.5 13.7 46 7.4 WSW 15 20 8 11 1010.9 1010.9 0.0
30/11:00pm 26.7 25.4 15.7 51 6.7 WSW 17 24 9 13 1011.1 1011.1 0.0
30/10:30pm 26.4 26.0 18.8 63 4.9 WSW 19 24 10 13 1011.1 1011.1 0.0
30/10:00pm 26.8 26.4 18.9 62 5.1 W 19 24 10 13 1011.1 1011.1 0.0
30/09:30pm 27.2 26.6 18.5 59 5.6 WSW 19 24 10 13 1011.0 1011.0 0.0
30/09:00pm 27.8 26.8 17.6 53 6.4 W 19 26 10 14 1010.7 1010.7 0.0
30/08:30pm 28.0 27.0 17.5 52 6.6 WSW 19 26 10 14 1010.5 1010.5 0.0
30/08:00pm 28.3 26.6 17.2 51 7.0 WSW 22 30 12 16 1010.3 1010.3 0.0
30/07:30pm 28.4 26.7 17.3 51 7.0 W 22 30 12 16 1009.9 1009.9 0.0
30/07:00pm 28.7 26.9 16.9 48 7.4 W 22 30 12 16 1009.6 1009.6 0.0
30/06:30pm 29.2 27.3 16.7 46 7.8 W 22 33 12 18 1009.1 1009.1 0.0
30/06:00pm 30.1 27.0 16.5 44 8.5 W 28 35 15 19 1008.9 1008.9 0.0
30/05:30pm 30.7 27.3 15.9 40 9.2 W 28 39 15 21 1008.6 1008.6 0.0
30/05:00pm 31.4 26.9 15.0 37 10.1 W 32 41 17 22 1008.5 1008.5 0.0
30/04:30pm 32.4 27.8 14.5 33 11.0 W 32 41 17 22 1008.3 1008.3 0.0
30/04:00pm 32.8 28.6 16.2 37 10.5 W 33 41 18 22 1008.3 1008.3 0.0
30/03:30pm 33.1 29.2 16.9 38 10.3 W 33 44 18 24 1008.3 1008.3 0.0
30/03:00pm 32.8 28.5 17.0 38 10.1 W 35 44 19 24 1008.4 1008.4 0.0
30/02:30pm 33.5 29.9 17.2 37 10.4 W 32 41 17 22 1008.4 1008.4 0.0
30/02:00pm 34.4 30.4 16.3 34 11.5 W 32 41 17 22 1008.6 1008.6 0.0
30/01:30pm 34.3 30.1 15.7 32 11.7 W 32 41 17 22 1008.8 1008.8 0.0
30/01:00pm 34.6 30.9 16.0 33 11.7 W 30 39 16 21 1009.0 1009.0 0.0
30/12:30pm 35.2 32.1 16.5 33 11.9 W 28 37 15 20 1009.3 1009.3 0.0
30/12:00pm 35.9 33.8 17.1 32 12.1 WNW 24 32 13 17 1009.6 1009.6 0.0
30/11:30am 36.4 34.8 16.5 30 12.7 WNW 20 30 11 16 1009.8 1009.8 0.0
30/11:00am 38.6 33.0 0.1 9 19.5 WSW 19 28 10 15 1010.1 1010.1 0.0
30/10:30am 38.1 32.7 2.5 11 18.6 SSW 20 30 11 16 1010.4 1010.4 0.0
30/10:00am 37.2 31.5 3.1 12 17.9 SSW 22 32 12 17 1010.8 1010.8 0.0
30/09:30am 35.9 29.7 4.2 14 16.8 SSW 26 35 14 19 1011.1 1011.1 0.0
30/09:00am 34.9 29.1 6.2 17 15.7 SSW 26 33 14 18 1011.1 1011.1 0.0
30/08:30am 32.6 28.7 9.4 24 13.2 S 20 32 11 17 1011.2 1011.2 0.0
30/08:00am 30.1 26.5 10.6 30 11.1 S 20 24 11 13 1011.6 1011.6 0.0
30/07:30am 27.8 24.8 11.8 37 9.2 S 19 24 10 13 1011.6 1011.6 0.0
30/07:00am 25.4 23.4 12.6 45 7.4 SSW 15 19 8 10 1011.6 1011.6 0.0
30/06:30am 22.7 21.9 12.9 54 5.6 SW 9 13 5 7 1011.5 1011.5 0.0
30/06:00am 21.3 20.8 12.7 58 4.9 SSW 7 9 4 5 1011.2 1011.2 0.0
30/05:30am 21.2 20.3 12.6 58 4.9 SW 9 13 5 7 1011.0 1011.0 0.0
30/05:00am 21.3 20.1 12.7 58 4.9 SW 11 13 6 7 1010.7 1010.7 0.0
30/04:30am 21.4 20.9 12.8 58 4.9 SW 7 9 4 5 1010.6 1010.6 0.0
30/04:00am 21.8 21.3 12.6 56 5.2 SW 7 9 4 5 1010.4 1010.4 0.0
30/03:30am 22.1 21.3 12.9 56 5.3 SW 9 11 5 6 1010.4 1010.4 0.0
30/03:00am 22.8 21.8 13.3 55 5.5 SW 11 13 6 7 1010.2 1010.2 0.0
30/02:30am 22.7 22.1 13.5 56 5.3 SW 9 13 5 7 1010.2 1010.2 0.0
30/02:00am 23.0 22.6 14.0 57 5.3 SW 9 11 5 6 1010.3 1010.3 0.0
30/01:30am 23.4 23.2 14.7 58 5.2 WSW 9 11 5 6 1010.5 1010.5 0.0
30/01:00am 23.8 23.9 15.6 60 4.9 WSW 9 11 5 6 1010.7 1010.7 0.0
30/12:30am 24.1 24.9 16.4 62 4.7 WSW 7 9 4 5 1010.9 1010.9 0.0
30/12:00am 24.8 25.7 17.5 64 4.6 WSW 9 13 5 7 1011.1 1011.1 0.0
 
Date/Time
WST
Temp
°C
App
Temp
°C
Dew
Point
Rel
Hum
%
Delta-T
°C
Wind Press
QNH
hPa
Press
MSL
hPa
Rain
since 9 am
mm
Dir
 
Spd
km/h
Gust
km/h
Spd
kts
Gust
kts
29/11:30pm 24.6 26.1 18.1 67 4.1 WSW 7 9 4 5 1011.3 1011.3 0.0
29/11:00pm 25.1 26.3 18.3 66 4.3 WSW 9 11 5 6 1011.5 1011.5 0.0
29/10:30pm 25.3 25.9 17.7 62 4.8 W 11 15 6 8 1011.6 1011.6 0.0
29/10:00pm 25.6 25.9 17.0 59 5.3 WSW 11 15 6 8 1011.8 1011.8 0.0
29/09:30pm 26.0 26.2 16.8 57 5.7 WSW 11 15 6 8 1011.7 1011.7 0.0
29/09:00pm 26.4 26.5 17.5 58 5.6 W 13 19 7 10 1011.5 1011.5 0.0
29/08:30pm 26.7 27.4 18.8 62 5.1 W 13 19 7 10 1011.2 1011.2 0.0
29/08:00pm 27.0 27.1 18.3 59 5.5 W 15 20 8 11 1011.0 1011.0 0.0
29/07:30pm 27.3 27.2 17.8 56 6.0 W 15 20 8 11 1010.8 1010.8 0.0
29/07:00pm 27.6 26.6 17.5 54 6.4 W 19 24 10 13 1010.6 1010.6 0.0
29/06:30pm 28.1 27.1 16.7 50 7.1 W 17 24 9 13 1010.5 1010.5 0.0
29/06:00pm 29.0 26.9 16.2 46 8.0 W 22 32 12 17 1010.2 1010.2 0.0
29/05:30pm 30.2 27.8 15.5 41 9.1 W 22 32 12 17 1010.0 1010.0 0.0
29/05:00pm 30.7 28.3 16.3 42 9.0 W 24 37 13 20 1009.9 1009.9 0.0

Other Formats:

Comma delimited format used in spreadsheet applications
http://www.bom.gov.au/fwo/IDW60801/IDW60801.94306.axf

JavaScript Object Notation format (JSON) in row-major order
http://www.bom.gov.au/fwo/IDW60801/IDW60801.94306.json